Hovedside
METAR-TAF:

METAR-TAF

Lufthavner :

Antonio B. Won Pat internasjonale lufthavn

Hagåtña, Guam, USA

breddegrad: 13-29N, lengdegrad: 144-48E, høyde over havet: 91 m

Gjeldene værobservasjon

Denne rapporten ble laget for 32 minutter siden, klokken 12:54 UTC
Vind 7 kt fra Nordøst
Temperatur 26°C
Luftfuktighet 79%
Trykk 1012 hPa
Sikt: 16.1 km
Brutte skyer i en høyde av 5500 ft

METAR: PGUM 221254Z 05007KT 10SM BKN055 26/22 A2989 RMK AO2 SLP113 T02560217

Tid: 23:26 (13:26 UTC)

Varsel

Denne rapporten ble laget for 2 timer og 6 minutter siden, klokken 11:20 UTC
Varsel gyldig fra 22. klokken 12 UTC til 23. klokken 18 UTC
Vind 7 kt fra Øst-nordøst
Sikt: 10 km
Spredte skyer i en høyde av 2500 ft
Spredte skyer i en høyde av 5000 ft
regnbyger i nærheten
Fra 23. klokken 0100 UTC
Vind 13 kt fra Øst
Sikt: 10 km
Få skyer i en høyde av 2500 ft
Spredte skyer i en høyde av 3500 ft

TAF: PGUM 221120Z 2212/2318 07007KT P6SM VCSH SCT025 SCT050 FM230100 08013KT P6SM FEW025 SCT035

Værobservasjoner og værvarsel for over 4000 flyplasser (METAR- og TAF-rapporter).

Tilgjengelige stasjoner er representert av de røde og gule prikkene på kartet.

Hold musepekeren over prikken for å se navnet på stasjonen.

Klikk så for å se værobservasjoner og -varsler.

For å forandre kartet kan du klikke på den grønne knappen med svart kryss for å zoome inn, på den grønne knappen med strek for å zoome ut, eller på de grønne pilene for å se tilstøtende kart.


METAR-TAF: